Time;durP1;ratioP1;P1;durP2;ratioP2;P2;SDS_P1;SDS_P2;PMS_P1;PMS_P2;Temp;Humidity;BMP_temperature;BMP_pressure;BME280_temperature;BME280_humidity;BME280_pressure;Samples;Min_cycle;Max_cycle;Signal;HPM_P1;HPM_P2
2023/04/16 00:00:16;;;;;;;13.82;3.65;;;;;;;;;;5074031;27;88848;-73
2023/04/16 00:02:42;;;;;;;11.63;2.95;;;;;;;;;;5076326;27;89417;-74
2023/04/16 00:05:09;;;;;;;13.18;3.50;;;;;;;;;;5057389;27;88355;-73
2023/04/16 00:07:36;;;;;;;9.55;2.85;;;;;;;;;;5058706;27;88523;-73
2023/04/16 00:10:02;;;;;;;14.80;3.50;;;;;;;;;;5059679;27;89165;-73
2023/04/16 00:12:29;;;;;;;15.15;3.20;;;;;;;;;;5060453;27;88478;-73
2023/04/16 00:14:55;;;;;;;16.02;3.35;;;;;;;;;;5070825;27;88826;-74
2023/04/16 00:17:21;;;;;;;14.63;3.25;;;;;;;;;;5066461;27;88832;-73
2023/04/16 00:19:48;;;;;;;14.07;2.85;;;;;;;;;;5081148;27;87309;-74
2023/04/16 00:22:14;;;;;;;20.23;3.92;;;;;;;;;;5075651;27;89567;-74
2023/04/16 00:24:41;;;;;;;10.40;2.88;;;;;;;;;;5080458;27;88922;-74
2023/04/16 00:27:07;;;;;;;10.00;2.85;;;;;;;;;;5062889;27;90525;-73
2023/04/16 00:29:33;;;;;;;13.45;3.15;;;;;;;;;;5075916;27;89021;-73
2023/04/16 00:32:00;;;;;;;12.00;2.88;;;;;;;;;;5078153;27;88009;-73
2023/04/16 00:34:26;;;;;;;9.82;2.72;;;;;;;;;;5063646;27;89975;-74
2023/04/16 00:36:52;;;;;;;12.07;2.67;;;;;;;;;;5067345;27;88992;-74
2023/04/16 00:39:18;;;;;;;12.35;2.72;;;;;;;;;;5077282;27;89545;-74
2023/04/16 00:41:45;;;;;;;6.72;2.70;;;;;;;;;;5072408;27;89083;-74
2023/04/16 00:44:11;;;;;;;9.25;2.72;;;;;;;;;;5060740;27;87852;-74
2023/04/16 00:46:37;;;;;;;11.98;2.35;;;;;;;;;;5062276;27;88059;-73
2023/04/16 00:49:04;;;;;;;11.93;2.88;;;;;;;;;;5055714;27;89181;-73
2023/04/16 00:51:31;;;;;;;15.10;3.35;;;;;;;;;;5058631;27;88845;-73
2023/04/16 00:53:57;;;;;;;10.07;3.00;;;;;;;;;;5059300;27;88056;-73
2023/04/16 00:56:23;;;;;;;16.83;3.40;;;;;;;;;;5058812;27;89251;-73
2023/04/16 00:58:50;;;;;;;13.10;3.47;;;;;;;;;;5059042;27;88064;-74
2023/04/16 01:01:16;;;;;;;8.13;2.72;;;;;;;;;;5072222;27;88776;-73
2023/04/16 01:03:43;;;;;;;15.45;4.07;;;;;;;;;;5066020;27;87978;-73
2023/04/16 01:06:10;;;;;;;17.65;3.78;;;;;;;;;;5058729;27;88759;-73
2023/04/16 01:08:37;;;;;;;14.00;3.60;;;;;;;;;;5059242;27;88481;-73
2023/04/16 01:11:03;;;;;;;11.30;4.15;;;;;;;;;;5059232;27;88033;-74
2023/04/16 01:13:30;;;;;;;18.65;3.65;;;;;;;;;;5058602;27;88721;-74
2023/04/16 01:15:56;;;;;;;15.25;4.13;;;;;;;;;;5072877;27;88830;-73
2023/04/16 01:18:23;;;;;;;12.27;4.03;;;;;;;;;;5063614;27;88198;-73
2023/04/16 01:20:50;;;;;;;19.15;4.13;;;;;;;;;;5074702;27;89847;-73
2023/04/16 01:23:20;;;;;;;22.70;4.63;;;;;;;;;;5062282;27;88961;-73
2023/04/16 01:25:46;;;;;;;15.82;3.85;;;;;;;;;;5070593;27;89882;-73
2023/04/16 01:28:12;;;;;;;14.07;3.83;;;;;;;;;;5076545;27;89020;-73
2023/04/16 01:30:39;;;;;;;16.83;3.75;;;;;;;;;;5072596;27;88848;-73
2023/04/16 01:33:06;;;;;;;21.50;4.07;;;;;;;;;;5068853;27;89181;-73
2023/04/16 01:35:32;;;;;;;15.13;4.78;;;;;;;;;;5057488;27;89008;-73
2023/04/16 01:37:58;;;;;;;11.85;4.22;;;;;;;;;;5061074;27;88141;-73
2023/04/16 01:40:25;;;;;;;15.65;4.38;;;;;;;;;;5059629;27;88837;-73
2023/04/16 01:42:51;;;;;;;19.45;5.35;;;;;;;;;;5064581;27;89488;-73
2023/04/16 01:45:17;;;;;;;17.05;4.93;;;;;;;;;;5063961;27;88864;-74
2023/04/16 01:47:43;;;;;;;15.70;4.60;;;;;;;;;;5070861;27;88909;-73
2023/04/16 01:50:10;;;;;;;20.92;5.22;;;;;;;;;;5050155;27;89258;-74
2023/04/16 01:52:36;;;;;;;20.13;5.30;;;;;;;;;;5062007;27;89841;-73
2023/04/16 01:55:03;;;;;;;20.63;5.45;;;;;;;;;;5069497;27;88959;-73
2023/04/16 01:57:29;;;;;;;26.08;5.88;;;;;;;;;;5076992;27;87897;-73
2023/04/16 01:59:56;;;;;;;22.33;6.05;;;;;;;;;;5072378;27;88161;-73
2023/04/16 02:02:26;;;;;;;24.30;5.72;;;;;;;;;;5073920;27;88701;-73
2023/04/16 02:04:54;;;;;;;21.33;5.47;;;;;;;;;;5067618;27;88754;-73
2023/04/16 02:07:20;;;;;;;19.85;5.60;;;;;;;;;;5063352;27;89651;-73
2023/04/16 02:09:46;;;;;;;24.52;6.18;;;;;;;;;;5059678;27;88458;-73
2023/04/16 02:12:13;;;;;;;17.35;5.93;;;;;;;;;;5057414;27;88844;-73
2023/04/16 02:14:40;;;;;;;17.63;5.60;;;;;;;;;;5074479;27;89052;-73
2023/04/16 02:17:06;;;;;;;32.40;7.32;;;;;;;;;;5075815;27;88080;-73
2023/04/16 02:19:32;;;;;;;26.13;7.07;;;;;;;;;;5063624;27;89412;-73
2023/04/16 02:22:00;;;;;;;28.33;8.13;;;;;;;;;;5067575;27;88211;-73
2023/04/16 02:24:26;;;;;;;19.38;7.13;;;;;;;;;;5069616;27;88396;-73
2023/04/16 02:26:53;;;;;;;27.80;7.72;;;;;;;;;;5077037;27;88882;-73
2023/04/16 02:29:21;;;;;;;24.58;7.55;;;;;;;;;;5074663;27;90186;-74
2023/04/16 02:31:48;;;;;;;25.88;7.82;;;;;;;;;;5069345;27;89506;-73
2023/04/16 02:34:14;;;;;;;24.95;7.55;;;;;;;;;;5073071;27;89087;-74
2023/04/16 02:36:40;;;;;;;20.98;7.50;;;;;;;;;;5061751;27;87966;-74
2023/04/16 02:39:07;;;;;;;32.30;8.45;;;;;;;;;;5074452;27;88993;-73
2023/04/16 02:41:33;;;;;;;26.83;9.10;;;;;;;;;;5053303;27;88975;-73
2023/04/16 02:44:00;;;;;;;24.77;8.23;;;;;;;;;;5072787;27;88136;-73
2023/04/16 02:46:26;;;;;;;24.08;8.45;;;;;;;;;;5071149;27;89369;-73
2023/04/16 02:48:52;;;;;;;27.88;7.95;;;;;;;;;;5065003;27;88859;-74
2023/04/16 02:51:19;;;;;;;23.67;8.65;;;;;;;;;;5077582;27;88649;-73
2023/04/16 02:53:45;;;;;;;26.60;8.30;;;;;;;;;;5076032;27;90277;-73
2023/04/16 02:56:11;;;;;;;27.50;7.93;;;;;;;;;;5077924;27;88043;-73
2023/04/16 02:58:38;;;;;;;26.30;8.13;;;;;;;;;;5077109;27;88956;-73
2023/04/16 03:01:04;;;;;;;22.95;8.45;;;;;;;;;;5071648;27;89127;-73
2023/04/16 03:03:30;;;;;;;26.65;8.35;;;;;;;;;;5059758;27;87994;-73
2023/04/16 03:05:57;;;;;;;31.15;9.00;;;;;;;;;;5056996;27;88790;-75
2023/04/16 03:08:23;;;;;;;23.67;8.88;;;;;;;;;;5057869;27;89946;-73
2023/04/16 03:10:49;;;;;;;35.45;9.75;;;;;;;;;;5060938;27;87860;-73
2023/04/16 03:13:16;;;;;;;26.25;9.07;;;;;;;;;;5057067;27;89495;-73
2023/04/16 03:15:46;;;;;;;29.35;9.43;;;;;;;;;;5074779;27;88120;-73
2023/04/16 03:18:13;;;;;;;30.05;10.63;;;;;;;;;;5066844;27;89334;-73
2023/04/16 03:20:39;;;;;;;28.08;9.60;;;;;;;;;;5060297;27;89385;-73
2023/04/16 03:23:05;;;;;;;30.10;10.88;;;;;;;;;;5074130;27;90051;-74
2023/04/16 03:25:31;;;;;;;44.03;11.63;;;;;;;;;;5058335;27;89581;-73
2023/04/16 03:27:58;;;;;;;40.33;11.00;;;;;;;;;;5072840;27;89181;-73
2023/04/16 03:30:24;;;;;;;22.40;9.35;;;;;;;;;;5070196;27;90044;-74
2023/04/16 03:32:50;;;;;;;32.17;10.30;;;;;;;;;;5066833;27;89732;-73
2023/04/16 03:35:17;;;;;;;37.53;10.57;;;;;;;;;;5066958;27;90552;-73
2023/04/16 03:37:43;;;;;;;30.98;10.85;;;;;;;;;;5067181;27;89769;-74
2023/04/16 03:40:10;;;;;;;32.75;10.82;;;;;;;;;;5074973;27;90410;-73
2023/04/16 03:42:36;;;;;;;29.33;9.75;;;;;;;;;;5074048;27;90419;-73
2023/04/16 03:45:03;;;;;;;36.03;10.25;;;;;;;;;;5069031;27;92323;-73
2023/04/16 03:47:29;;;;;;;27.85;10.05;;;;;;;;;;5070574;27;89130;-74
2023/04/16 03:49:55;;;;;;;28.65;9.63;;;;;;;;;;5077556;27;90289;-74
2023/04/16 03:52:21;;;;;;;26.70;9.63;;;;;;;;;;5071959;27;88848;-74
2023/04/16 03:54:48;;;;;;;30.55;9.93;;;;;;;;;;5082502;27;88992;-73
2023/04/16 03:57:14;;;;;;;23.08;9.40;;;;;;;;;;5080747;27;89943;-73
2023/04/16 03:59:40;;;;;;;28.55;10.07;;;;;;;;;;5076478;27;88203;-73
2023/04/16 04:02:07;;;;;;;27.35;11.13;;;;;;;;;;5072805;27;90570;-74
2023/04/16 04:04:33;;;;;;;28.67;9.55;;;;;;;;;;5073346;27;89895;-73
2023/04/16 04:07:00;;;;;;;31.10;10.55;;;;;;;;;;5085639;27;89762;-70
2023/04/16 04:09:26;;;;;;;28.77;10.75;;;;;;;;;;5076017;27;90749;-72
2023/04/16 04:11:52;;;;;;;30.23;10.55;;;;;;;;;;5096441;27;88793;-73
2023/04/16 04:14:19;;;;;;;34.88;11.15;;;;;;;;;;5103256;27;89114;-73
2023/04/16 04:16:45;;;;;;;35.13;11.63;;;;;;;;;;5104560;27;90004;-72
2023/04/16 04:19:12;;;;;;;23.05;10.07;;;;;;;;;;5100086;27;88353;-72
2023/04/16 04:21:38;;;;;;;29.35;11.93;;;;;;;;;;5093011;27;88604;-73
2023/04/16 04:24:04;;;;;;;35.72;11.73;;;;;;;;;;5091084;27;88884;-73
2023/04/16 04:26:31;;;;;;;32.85;11.98;;;;;;;;;;5100408;27;89813;-75
2023/04/16 04:28:57;;;;;;;33.10;11.57;;;;;;;;;;5091072;27;89969;-72
2023/04/16 04:31:23;;;;;;;27.08;11.32;;;;;;;;;;5092572;27;89014;-73
2023/04/16 04:33:50;;;;;;;36.28;12.68;;;;;;;;;;5100700;27;88763;-72
2023/04/16 04:36:16;;;;;;;36.38;11.40;;;;;;;;;;5100636;27;89081;-73
2023/04/16 04:38:42;;;;;;;30.13;10.93;;;;;;;;;;5074260;27;88881;-73
2023/04/16 04:41:09;;;;;;;30.65;10.57;;;;;;;;;;5079032;27;90038;-73
2023/04/16 04:43:35;;;;;;;34.30;11.00;;;;;;;;;;5072793;27;89595;-73
2023/04/16 04:46:01;;;;;;;35.38;10.77;;;;;;;;;;5060197;27;89341;-74
2023/04/16 04:48:28;;;;;;;34.22;11.77;;;;;;;;;;5072626;27;90252;-74
2023/04/16 04:50:54;;;;;;;33.30;10.88;;;;;;;;;;5059228;27;89168;-73
2023/04/16 04:53:20;;;;;;;32.35;11.13;;;;;;;;;;5059437;27;90059;-73
2023/04/16 04:55:46;;;;;;;35.63;11.05;;;;;;;;;;5058979;27;89698;-73
2023/04/16 04:58:19;;;;;;;29.38;11.00;;;;;;;;;;5062083;27;89761;-73
2023/04/16 05:00:45;;;;;;;27.80;10.88;;;;;;;;;;5069519;27;90187;-73
2023/04/16 05:03:11;;;;;;;35.42;11.23;;;;;;;;;;5078627;27;89602;-73
2023/04/16 05:05:39;;;;;;;38.53;11.90;;;;;;;;;;5078450;27;89013;-74
2023/04/16 05:08:06;;;;;;;40.90;11.90;;;;;;;;;;5078551;27;90286;-73
2023/04/16 05:10:32;;;;;;;31.90;12.38;;;;;;;;;;5077594;27;90402;-73
2023/04/16 05:12:58;;;;;;;34.30;11.32;;;;;;;;;;5075860;27;89057;-73
2023/04/16 05:15:25;;;;;;;34.47;11.25;;;;;;;;;;5066807;27;91185;-73
2023/04/16 05:17:51;;;;;;;31.58;11.50;;;;;;;;;;5062931;27;89744;-73
2023/04/16 05:20:17;;;;;;;38.35;11.63;;;;;;;;;;5077573;27;89423;-73
2023/04/16 05:22:44;;;;;;;35.95;11.98;;;;;;;;;;5073460;27;90570;-74
2023/04/16 05:25:10;;;;;;;40.70;12.13;;;;;;;;;;5072847;27;90746;-73
2023/04/16 05:27:37;;;;;;;39.78;11.98;;;;;;;;;;5075474;27;90005;-73
2023/04/16 05:30:03;;;;;;;31.98;11.85;;;;;;;;;;5066605;27;90079;-74
2023/04/16 05:32:30;;;;;;;26.05;11.55;;;;;;;;;;5069768;27;89889;-73
2023/04/16 05:34:56;;;;;;;35.42;11.75;;;;;;;;;;5074996;27;90778;-73
2023/04/16 05:37:22;;;;;;;40.65;12.32;;;;;;;;;;5065712;27;89697;-73
2023/04/16 05:39:48;;;;;;;51.63;12.65;;;;;;;;;;5065292;27;89287;-74
2023/04/16 05:42:15;;;;;;;38.45;11.75;;;;;;;;;;5066702;27;90140;-74
2023/04/16 05:44:41;;;;;;;41.83;12.25;;;;;;;;;;5065731;27;89556;-74
2023/04/16 05:47:08;;;;;;;45.28;13.82;;;;;;;;;;5065514;27;90115;-73
2023/04/16 05:49:36;;;;;;;40.30;12.10;;;;;;;;;;5070229;27;89552;-74
2023/04/16 05:52:03;;;;;;;32.83;11.95;;;;;;;;;;5071874;27;90036;-74
2023/04/16 05:54:29;;;;;;;33.45;12.88;;;;;;;;;;5069960;27;91275;-73
2023/04/16 05:56:55;;;;;;;33.40;13.30;;;;;;;;;;5068804;27;89605;-73
2023/04/16 05:59:21;;;;;;;45.80;13.15;;;;;;;;;;5066462;27;89499;-73
2023/04/16 06:01:48;;;;;;;35.03;12.32;;;;;;;;;;5070540;27;90439;-73
2023/04/16 06:04:14;;;;;;;43.13;12.73;;;;;;;;;;5074180;27;89547;-74
2023/04/16 06:06:41;;;;;;;35.78;11.82;;;;;;;;;;5075411;27;90251;-73
2023/04/16 06:09:07;;;;;;;38.40;11.90;;;;;;;;;;5074462;27;89614;-73
2023/04/16 06:11:34;;;;;;;40.10;11.93;;;;;;;;;;5070166;27;89002;-74
2023/04/16 06:14:01;;;;;;;44.05;12.73;;;;;;;;;;5065648;27;90086;-74
2023/04/16 06:16:28;;;;;;;43.60;11.68;;;;;;;;;;5071046;27;89355;-74
2023/04/16 06:18:54;;;;;;;33.45;12.57;;;;;;;;;;5068861;27;90743;-73
2023/04/16 06:21:21;;;;;;;33.67;12.50;;;;;;;;;;5070589;27;90001;-74
2023/04/16 06:23:47;;;;;;;34.42;12.75;;;;;;;;;;5074285;27;89319;-74
2023/04/16 06:26:13;;;;;;;35.20;12.43;;;;;;;;;;5076814;27;89075;-74
2023/04/16 06:28:39;;;;;;;34.60;13.23;;;;;;;;;;5064314;27;90518;-73
2023/04/16 06:31:06;;;;;;;33.58;12.68;;;;;;;;;;5069483;27;89397;-73
2023/04/16 06:33:32;;;;;;;42.80;13.93;;;;;;;;;;5067785;27;89992;-74
2023/04/16 06:35:58;;;;;;;43.90;14.52;;;;;;;;;;5073819;27;89576;-73
2023/04/16 06:38:24;;;;;;;47.58;15.43;;;;;;;;;;5075593;27;89650;-75
2023/04/16 06:40:51;;;;;;;44.67;14.65;;;;;;;;;;5072063;27;90051;-75
2023/04/16 06:43:17;;;;;;;48.75;14.60;;;;;;;;;;5069958;27;89248;-75
2023/04/16 06:45:43;;;;;;;45.72;14.95;;;;;;;;;;5078786;27;89687;-75
2023/04/16 06:48:10;;;;;;;42.75;15.00;;;;;;;;;;5057866;27;89061;-74
2023/04/16 06:50:36;;;;;;;39.88;14.65;;;;;;;;;;5057513;27;89100;-75
2023/04/16 06:53:02;;;;;;;36.50;15.63;;;;;;;;;;5068043;27;89982;-75
2023/04/16 06:55:29;;;;;;;39.97;15.88;;;;;;;;;;5076560;27;89558;-75
2023/04/16 06:57:55;;;;;;;37.97;14.77;;;;;;;;;;5077002;27;90755;-75
2023/04/16 07:00:21;;;;;;;37.85;15.18;;;;;;;;;;5074447;27;89861;-75
2023/04/16 07:02:48;;;;;;;44.00;15.25;;;;;;;;;;5063149;27;89519;-75
2023/04/16 07:05:14;;;;;;;42.03;14.13;;;;;;;;;;5072058;27;90168;-74
2023/04/16 07:07:41;;;;;;;43.08;14.43;;;;;;;;;;5059204;27;91274;-74
2023/04/16 07:10:07;;;;;;;35.60;14.07;;;;;;;;;;5056242;27;89192;-74
2023/04/16 07:12:34;;;;;;;36.72;14.13;;;;;;;;;;5067142;27;90090;-75
2023/04/16 07:15:00;;;;;;;38.85;14.02;;;;;;;;;;5061092;27;90822;-74
2023/04/16 07:17:26;;;;;;;35.75;14.77;;;;;;;;;;5065315;27;90564;-74
2023/04/16 07:19:53;;;;;;;41.33;17.42;;;;;;;;;;5062410;27;90262;-75
2023/04/16 07:22:19;;;;;;;42.40;18.30;;;;;;;;;;5068486;27;90409;-74
2023/04/16 07:24:45;;;;;;;39.28;17.90;;;;;;;;;;5079979;27;88892;-74
2023/04/16 07:27:12;;;;;;;41.25;17.40;;;;;;;;;;5079366;27;91177;-74
2023/04/16 07:29:38;;;;;;;36.47;15.75;;;;;;;;;;5078882;27;89592;-75
2023/04/16 07:32:05;;;;;;;37.20;16.02;;;;;;;;;;5077451;27;91141;-75
2023/04/16 07:34:31;;;;;;;37.50;16.10;;;;;;;;;;5079737;27;89816;-75
2023/04/16 07:36:57;;;;;;;37.95;16.08;;;;;;;;;;5077564;27;93429;-74
2023/04/16 07:39:24;;;;;;;32.85;15.15;;;;;;;;;;5064408;27;91728;-74
2023/04/16 07:41:50;;;;;;;37.90;13.57;;;;;;;;;;5056328;27;93760;-76
2023/04/16 07:44:16;;;;;;;31.33;14.02;;;;;;;;;;5072555;27;93353;-75
2023/04/16 07:46:43;;;;;;;30.23;12.95;;;;;;;;;;5049298;27;96759;-76
2023/04/16 07:49:13;;;;;;;37.40;13.40;;;;;;;;;;5062701;27;95800;-75
2023/04/16 07:51:39;;;;;;;28.10;12.85;;;;;;;;;;5077827;27;93987;-75
2023/04/16 07:54:05;;;;;;;26.08;13.02;;;;;;;;;;5070161;27;93228;-76
2023/04/16 07:56:32;;;;;;;28.48;12.73;;;;;;;;;;5063508;27;93397;-75
2023/04/16 07:58:58;;;;;;;34.88;13.68;;;;;;;;;;5057079;27;92690;-75
2023/04/16 08:01:44;;;;;;;33.70;15.38;;;;;;;;;;5076584;27;93392;-75
2023/04/16 08:04:11;;;;;;;36.10;13.40;;;;;;;;;;5066878;27;93483;-75
2023/04/16 08:06:37;;;;;;;33.20;12.70;;;;;;;;;;5068134;27;92845;-76
2023/04/16 08:09:04;;;;;;;31.35;13.25;;;;;;;;;;5074890;27;94529;-75
2023/04/16 08:11:30;;;;;;;26.20;12.30;;;;;;;;;;5072122;27;94836;-75
2023/04/16 08:13:56;;;;;;;27.30;13.05;;;;;;;;;;5079765;27;92473;-75
2023/04/16 08:16:22;;;;;;;29.95;12.60;;;;;;;;;;5072446;27;93742;-75
2023/04/16 08:18:49;;;;;;;29.65;12.93;;;;;;;;;;5067568;27;92497;-75
2023/04/16 08:21:16;;;;;;;28.30;12.45;;;;;;;;;;5067763;27;93754;-76
2023/04/16 08:23:42;;;;;;;22.25;11.55;;;;;;;;;;5070841;27;92804;-76
2023/04/16 08:26:08;;;;;;;26.35;11.85;;;;;;;;;;5067854;27;92587;-76
2023/04/16 08:28:34;;;;;;;24.05;10.88;;;;;;;;;;5064291;27;91969;-76
2023/04/16 08:31:01;;;;;;;22.40;10.20;;;;;;;;;;5066642;27;93354;-76
2023/04/16 08:33:27;;;;;;;22.67;9.82;;;;;;;;;;5063702;27;92698;-77
2023/04/16 08:35:53;;;;;;;23.88;9.75;;;;;;;;;;5039685;27;95149;-74
2023/04/16 08:38:20;;;;;;;20.65;9.90;;;;;;;;;;5056218;27;92619;-75
2023/04/16 08:40:46;;;;;;;19.60;9.43;;;;;;;;;;5074783;27;93579;-75
2023/04/16 08:43:13;;;;;;;14.40;8.73;;;;;;;;;;5070759;27;94908;-75
2023/04/16 08:45:41;;;;;;;21.63;9.77;;;;;;;;;;5060258;27;93087;-75
2023/04/16 08:48:10;;;;;;;15.35;9.02;;;;;;;;;;5058044;27;93103;-75
2023/04/16 08:50:36;;;;;;;18.05;9.40;;;;;;;;;;5056125;27;93509;-75
2023/04/16 08:53:05;;;;;;;19.83;9.18;;;;;;;;;;5056811;27;91935;-75
2023/04/16 08:55:35;;;;;;;15.38;8.35;;;;;;;;;;5058966;27;92797;-75
2023/04/16 08:58:02;;;;;;;13.32;8.55;;;;;;;;;;5056080;27;92566;-75
2023/04/16 09:00:30;;;;;;;20.45;7.78;;;;;;;;;;5058375;27;94852;-75
2023/04/16 09:02:56;;;;;;;16.27;8.18;;;;;;;;;;5076029;27;93494;-76
2023/04/16 09:05:25;;;;;;;15.88;7.22;;;;;;;;;;5076017;27;92522;-75
2023/04/16 09:07:51;;;;;;;13.98;6.65;;;;;;;;;;5076362;27;93649;-75
2023/04/16 09:10:18;;;;;;;13.25;7.00;;;;;;;;;;5076144;27;93216;-75
2023/04/16 09:12:45;;;;;;;13.85;7.15;;;;;;;;;;5076322;27;92444;-75
2023/04/16 09:15:11;;;;;;;14.07;7.40;;;;;;;;;;5074957;27;93656;-74
2023/04/16 09:17:38;;;;;;;16.70;7.63;;;;;;;;;;5080111;27;93712;-75
2023/04/16 09:20:07;;;;;;;11.05;7.05;;;;;;;;;;5058004;27;92815;-75
2023/04/16 09:22:34;;;;;;;15.85;7.40;;;;;;;;;;5058190;27;93445;-75
2023/04/16 09:25:00;;;;;;;11.73;6.82;;;;;;;;;;5054035;27;94828;-75
2023/04/16 09:27:27;;;;;;;7.70;6.07;;;;;;;;;;5055581;27;95534;-75
2023/04/16 09:29:53;;;;;;;13.40;7.32;;;;;;;;;;5055382;27;93471;-75
2023/04/16 09:32:23;;;;;;;10.88;6.70;;;;;;;;;;5072599;27;93093;-74
2023/04/16 09:34:57;;;;;;;7.70;5.72;;;;;;;;;;5075714;27;93587;-74
2023/04/16 09:37:24;;;;;;;12.57;6.57;;;;;;;;;;5075642;27;93787;-74
2023/04/16 09:39:56;;;;;;;14.65;7.20;;;;;;;;;;5061560;27;92487;-74
2023/04/16 09:42:23;;;;;;;12.35;7.38;;;;;;;;;;5074754;27;91641;-75
2023/04/16 09:44:51;;;;;;;8.75;6.53;;;;;;;;;;5057280;27;92565;-74
2023/04/16 09:47:17;;;;;;;10.23;6.90;;;;;;;;;;5064281;27;93062;-74
2023/04/16 09:49:44;;;;;;;10.32;6.38;;;;;;;;;;5053386;27;95433;-74
2023/04/16 09:52:17;;;;;;;12.98;6.82;;;;;;;;;;5055461;27;92552;-74
2023/04/16 09:54:50;;;;;;;12.10;6.97;;;;;;;;;;5055198;27;92461;-74
2023/04/16 09:57:20;;;;;;;13.23;6.63;;;;;;;;;;5055030;27;93731;-74
2023/04/16 09:59:48;;;;;;;12.07;6.65;;;;;;;;;;5055459;27;92411;-74
2023/04/16 10:02:14;;;;;;;9.30;6.25;;;;;;;;;;5063079;27;93592;-74
2023/04/16 10:04:45;;;;;;;15.05;7.28;;;;;;;;;;5074162;27;92919;-74
2023/04/16 10:07:12;;;;;;;13.93;6.75;;;;;;;;;;5074653;27;93225;-74
2023/04/16 10:09:38;;;;;;;15.20;8.27;;;;;;;;;;5075762;27;94822;-74
2023/04/16 10:12:05;;;;;;;12.40;7.65;;;;;;;;;;5075381;27;92770;-74
2023/04/16 10:14:32;;;;;;;16.63;7.68;;;;;;;;;;5073593;27;94893;-74
2023/04/16 10:16:59;;;;;;;14.05;7.53;;;;;;;;;;5066553;27;93410;-74
2023/04/16 10:19:26;;;;;;;15.35;7.60;;;;;;;;;;5054802;27;92734;-74
2023/04/16 10:21:53;;;;;;;11.60;6.90;;;;;;;;;;5054809;27;93156;-75
2023/04/16 10:24:19;;;;;;;25.67;8.57;;;;;;;;;;5057493;27;93791;-74
2023/04/16 10:26:46;;;;;;;19.48;7.90;;;;;;;;;;5054850;27;93149;-75
2023/04/16 10:29:12;;;;;;;14.82;7.80;;;;;;;;;;5054335;27;93289;-74
2023/04/16 10:31:39;;;;;;;20.42;8.65;;;;;;;;;;5066116;27;91719;-74
2023/04/16 10:34:06;;;;;;;24.20;9.10;;;;;;;;;;5075527;27;93745;-74
2023/04/16 10:36:35;;;;;;;18.95;9.30;;;;;;;;;;5074875;27;93629;-75
2023/04/16 10:39:02;;;;;;;24.40;11.20;;;;;;;;;;5073226;27;94878;-74
2023/04/16 10:41:30;;;;;;;20.83;10.52;;;;;;;;;;5055952;27;95614;-74
2023/04/16 10:44:10;;;;;;;20.38;10.63;;;;;;;;;;5073611;27;93601;-74
2023/04/16 10:46:40;;;;;;;18.27;9.45;;;;;;;;;;5072004;27;92314;-74
2023/04/16 10:49:06;;;;;;;;;;;;;;;;;;5054779;27;92480;-74
2023/04/16 10:51:34;;;;;;;28.30;10.45;;;;;;;;;;5054411;27;118391;-74
2023/04/16 10:54:18;;;;;;;24.10;10.25;;;;;;;;;;5053877;27;94417;-75
2023/04/16 10:56:45;;;;;;;18.58;9.00;;;;;;;;;;5035863;27;91863;-75
2023/04/16 10:59:12;;;;;;;23.10;9.52;;;;;;;;;;5054128;27;92695;-74
2023/04/16 11:01:42;;;;;;;18.70;9.23;;;;;;;;;;5054533;27;94304;-74
2023/04/16 11:04:21;;;;;;;24.97;9.83;;;;;;;;;;5054084;27;96027;-74
2023/04/16 11:07:08;;;;;;;26.17;10.82;;;;;;;;;;5077767;27;92412;-74
2023/04/16 11:09:48;;;;;;;22.65;9.68;;;;;;;;;;5062272;27;92544;-74
2023/04/16 11:12:36;;;;;;;18.20;9.85;;;;;;;;;;5074475;27;93026;-74
2023/04/16 11:15:04;;;;;;;26.52;10.60;;;;;;;;;;5074806;27;94609;-74
2023/04/16 11:17:36;;;;;;;28.35;12.07;;;;;;;;;;5060470;27;93974;-73
2023/04/16 11:20:04;;;;;;;30.40;11.27;;;;;;;;;;5053038;27;92523;-76
2023/04/16 11:22:45;;;;;;;26.60;11.35;;;;;;;;;;5054333;27;92931;-75
2023/04/16 11:25:12;;;;;;;32.03;12.43;;;;;;;;;;5055615;27;93421;-75
2023/04/16 11:27:38;;;;;;;25.63;11.57;;;;;;;;;;5063102;27;92384;-75
2023/04/16 11:30:07;;;;;;;24.55;11.55;;;;;;;;;;5054305;27;95473;-75
2023/04/16 11:32:34;;;;;;;32.47;11.60;;;;;;;;;;5070908;27;92499;-75
2023/04/16 11:35:03;;;;;;;27.85;11.68;;;;;;;;;;5073248;27;93121;-76
2023/04/16 11:37:33;;;;;;;25.15;11.63;;;;;;;;;;5073118;27;95007;-75
2023/04/16 11:40:00;;;;;;;17.50;10.10;;;;;;;;;;5073162;27;93512;-75
2023/04/16 11:42:27;;;;;;;25.90;11.35;;;;;;;;;;5072893;27;93185;-75
2023/04/16 11:44:54;;;;;;;17.85;10.57;;;;;;;;;;5073008;27;94579;-75
2023/04/16 11:47:24;;;;;;;26.33;11.48;;;;;;;;;;5061679;27;91690;-75
2023/04/16 11:49:50;;;;;;;20.92;11.52;;;;;;;;;;5053169;27;93528;-75
2023/04/16 11:52:32;;;;;;;20.88;10.77;;;;;;;;;;5055819;27;93610;-75
2023/04/16 11:54:59;;;;;;;21.38;11.88;;;;;;;;;;5033189;27;95243;-75
2023/04/16 11:57:26;;;;;;;25.67;12.63;;;;;;;;;;5052680;27;93977;-75
2023/04/16 11:59:52;;;;;;;22.85;12.27;;;;;;;;;;5053307;27;92482;-75
2023/04/16 12:02:35;;;;;;;25.27;11.23;;;;;;;;;;5058291;27;94755;-75
2023/04/16 12:05:02;;;;;;;24.27;11.45;;;;;;;;;;5055979;27;93296;-75
2023/04/16 12:07:29;;;;;;;20.38;11.32;;;;;;;;;;5056257;27;92683;-75
2023/04/16 12:10:06;;;;;;;24.35;11.43;;;;;;;;;;5063007;27;93213;-75
2023/04/16 12:12:33;;;;;;;27.58;11.82;;;;;;;;;;5059143;27;92318;-75
2023/04/16 12:15:04;;;;;;;27.85;11.90;;;;;;;;;;5079607;27;92529;-75
2023/04/16 12:17:30;;;;;;;;;;;;;;;;;;5063454;27;93708;-72
2023/04/16 12:19:58;;;;;;;23.08;11.23;;;;;;;;;;5055803;27;119502;-75
2023/04/16 12:22:33;;;;;;;22.13;9.70;;;;;;;;;;5056116;27;96646;-75
2023/04/16 12:25:05;;;;;;;20.45;10.77;;;;;;;;;;5056464;27;93641;-74
2023/04/16 12:27:45;;;;;;;21.85;10.45;;;;;;;;;;5055730;27;92704;-74
2023/04/16 12:30:13;;;;;;;23.75;10.32;;;;;;;;;;5055950;27;93757;-74
2023/04/16 12:32:40;;;;;;;20.80;10.02;;;;;;;;;;5055607;27;93752;-74
2023/04/16 12:35:08;;;;;;;20.80;10.45;;;;;;;;;;5055707;27;92479;-74
2023/04/16 12:37:34;;;;;;;18.13;8.93;;;;;;;;;;5059367;27;91932;-74
2023/04/16 12:40:01;;;;;;;23.60;10.23;;;;;;;;;;5056442;27;92504;-74
2023/04/16 12:42:33;;;;;;;21.90;10.63;;;;;;;;;;5057710;27;94008;-74
2023/04/16 12:45:01;;;;;;;18.23;10.23;;;;;;;;;;5055033;27;94909;-71
2023/04/16 12:47:27;;;;;;;19.90;9.40;;;;;;;;;;5060122;27;92434;-74
2023/04/16 12:49:54;;;;;;;21.60;10.02;;;;;;;;;;5068275;27;93353;-74
2023/04/16 12:52:20;;;;;;;17.30;9.60;;;;;;;;;;5069830;27;93848;-75
2023/04/16 12:54:49;;;;;;;23.63;9.98;;;;;;;;;;5070487;27;92822;-75
2023/04/16 12:57:15;;;;;;;22.38;9.43;;;;;;;;;;5078695;27;94374;-75
2023/04/16 12:59:41;;;;;;;23.52;10.30;;;;;;;;;;5076385;27;92397;-75
2023/04/16 13:02:08;;;;;;;18.95;9.43;;;;;;;;;;5071958;27;93189;-75
2023/04/16 13:04:34;;;;;;;21.55;9.73;;;;;;;;;;5066267;27;93414;-75
2023/04/16 13:07:01;;;;;;;17.88;9.82;;;;;;;;;;5075096;27;92583;-75
2023/04/16 13:09:27;;;;;;;18.33;9.43;;;;;;;;;;5074985;27;94875;-75
2023/04/16 13:11:53;;;;;;;24.08;10.27;;;;;;;;;;5075970;27;93380;-75
2023/04/16 13:14:20;;;;;;;21.08;10.57;;;;;;;;;;5073611;27;92663;-75
2023/04/16 13:16:46;;;;;;;26.63;10.98;;;;;;;;;;5061199;27;94449;-75
2023/04/16 13:19:14;;;;;;;20.85;9.95;;;;;;;;;;5070984;27;93510;-75
2023/04/16 13:21:41;;;;;;;23.23;10.65;;;;;;;;;;5064751;27;92800;-75
2023/04/16 13:24:07;;;;;;;23.65;11.23;;;;;;;;;;5065007;27;93397;-75
2023/04/16 13:26:33;;;;;;;30.05;11.63;;;;;;;;;;5075066;27;91727;-75
2023/04/16 13:28:59;;;;;;;27.20;12.27;;;;;;;;;;5056804;27;92454;-75
2023/04/16 13:31:26;;;;;;;29.92;12.07;;;;;;;;;;5075178;27;93612;-75
2023/04/16 13:33:52;;;;;;;32.65;12.13;;;;;;;;;;5067226;27;94997;-75
2023/04/16 13:36:19;;;;;;;28.13;12.55;;;;;;;;;;5073920;27;95519;-75
2023/04/16 13:38:45;;;;;;;33.53;12.90;;;;;;;;;;5074858;27;93523;-75
2023/04/16 13:41:11;;;;;;;43.53;13.93;;;;;;;;;;5078219;27;92476;-75
2023/04/16 13:43:38;;;;;;;40.45;13.35;;;;;;;;;;5072258;27;93229;-75
2023/04/16 13:46:04;;;;;;;35.63;13.55;;;;;;;;;;5068754;27;93843;-75
2023/04/16 13:48:31;;;;;;;29.73;12.65;;;;;;;;;;5039284;27;93278;-75
2023/04/16 13:50:57;;;;;;;32.20;13.07;;;;;;;;;;5074553;27;93519;-75
2023/04/16 13:53:24;;;;;;;34.97;13.48;;;;;;;;;;5070134;27;92447;-75
2023/04/16 13:55:50;;;;;;;37.88;13.00;;;;;;;;;;5071326;27;93601;-75
2023/04/16 13:58:17;;;;;;;36.00;13.13;;;;;;;;;;5073143;27;96211;-75
2023/04/16 14:00:43;;;;;;;36.47;12.73;;;;;;;;;;5074863;27;92373;-75
2023/04/16 14:03:09;;;;;;;26.52;12.55;;;;;;;;;;5072462;27;92535;-74
2023/04/16 14:05:36;;;;;;;35.70;13.15;;;;;;;;;;5069365;27;92610;-74
2023/04/16 14:08:02;;;;;;;29.73;11.98;;;;;;;;;;5055476;27;93208;-75
2023/04/16 14:10:29;;;;;;;28.05;12.05;;;;;;;;;;5074590;27;93770;-75
2023/04/16 14:12:56;;;;;;;25.40;11.18;;;;;;;;;;5073120;27;92936;-75
2023/04/16 14:15:25;;;;;;;24.17;10.73;;;;;;;;;;5072390;27;93536;-75
2023/04/16 14:17:51;;;;;;;26.40;10.43;;;;;;;;;;5056743;27;93405;-75
2023/04/16 14:20:17;;;;;;;30.13;11.13;;;;;;;;;;5053926;27;92388;-75
2023/04/16 14:22:45;;;;;;;25.48;11.18;;;;;;;;;;5059410;27;94839;-75